Time;durP1;ratioP1;P1;durP2;ratioP2;P2;SDS_P1;SDS_P2;PMS_P1;PMS_P2;Temp;Humidity;BMP_temperature;BMP_pressure;BME280_temperature;BME280_humidity;BME280_pressure;Samples;Min_cycle;Max_cycle;Signal;HPM_P1;HPM_P2
2021/05/30 00:02:16;;;;;;;17.10;15.40;;;9.20;99.90;;;;;;4935899;29;21021;-71
2021/05/30 00:04:44;;;;;;;18.23;16.27;;;9.10;99.60;;;;;;4937118;29;20814;-71
2021/05/30 00:07:12;;;;;;;16.60;15.00;;;9.10;99.60;;;;;;4938609;29;20458;-71
2021/05/30 00:09:39;;;;;;;16.73;15.23;;;9.10;99.70;;;;;;4937073;29;20499;-71
2021/05/30 00:12:09;;;;;;;16.80;15.20;;;9.10;99.70;;;;;;4935874;29;20510;-71
2021/05/30 00:15:35;;;;;;;15.73;14.27;;;9.00;99.70;;;;;;4937009;29;20436;-72
2021/05/30 00:25:23;;;;;;;16.57;14.83;;;8.90;99.70;;;;;;4935516;29;20484;-73
2021/05/30 00:27:50;;;;;;;15.57;13.90;;;8.90;99.70;;;;;;4938254;29;20447;-73
2021/05/30 00:30:19;;;;;;;16.13;14.50;;;8.80;99.70;;;;;;4935545;29;21004;-73
2021/05/30 00:32:48;;;;;;;15.37;13.53;;;8.80;99.80;;;;;;4936845;29;20483;-73
2021/05/30 00:35:15;;;;;;;13.80;12.33;;;8.80;99.80;;;;;;4937862;29;20778;-73
2021/05/30 00:37:43;;;;;;;17.50;15.40;;;8.80;99.80;;;;;;4935545;29;20530;-73
2021/05/30 00:40:12;;;;;;;14.67;13.33;;;8.80;99.90;;;;;;4936234;29;20455;-73
2021/05/30 00:42:39;;;;;;;14.50;13.10;;;8.70;99.90;;;;;;4936667;29;20542;-73
2021/05/30 00:45:10;;;;;;;15.53;14.00;;;8.70;99.90;;;;;;4935226;29;20494;-73
2021/05/30 00:47:39;;;;;;;15.53;13.93;;;8.70;99.90;;;;;;4935554;29;20932;-73
2021/05/30 00:50:09;;;;;;;14.03;12.60;;;8.70;99.80;;;;;;4935148;29;20948;-73
2021/05/30 00:52:39;;;;;;;15.87;13.00;;;8.60;99.80;;;;;;4936269;29;20821;-73
2021/05/30 00:55:11;;;;;;;15.17;13.13;;;8.60;99.80;;;;;;4936654;29;20485;-73
2021/05/30 00:57:38;;;;;;;15.50;13.02;;;8.60;99.80;;;;;;4935460;29;20891;-73
2021/05/30 01:00:10;;;;;;;16.60;11.50;;;8.60;99.90;;;;;;4936233;29;20546;-73
2021/05/30 01:02:37;;;;;;;12.90;11.57;;;8.60;99.80;;;;;;4935175;29;20547;-73
2021/05/30 01:05:08;;;;;;;15.40;11.67;;;8.60;99.80;;;;;;4936517;29;20547;-73
2021/05/30 01:07:41;;;;;;;13.45;12.05;;;8.50;99.80;;;;;;4935119;29;20469;-73
2021/05/30 01:10:19;;;;;;;13.93;12.47;;;8.60;99.90;;;;;;4936525;29;20268;-73
2021/05/30 01:12:47;;;;;;;13.30;12.00;;;8.60;99.90;;;;;;4937597;29;21009;-73
2021/05/30 01:15:16;;;;;;;12.80;11.53;;;8.50;99.90;;;;;;4934904;29;20879;-73
2021/05/30 01:17:46;;;;;;;14.40;12.93;;;8.40;99.80;;;;;;4936099;29;20462;-73
2021/05/30 01:20:19;;;;;;;14.17;12.80;;;8.40;99.80;;;;;;4936608;29;20467;-73
2021/05/30 01:22:47;;;;;;;14.13;12.70;;;8.30;99.70;;;;;;4934902;29;20504;-73
2021/05/30 01:25:18;;;;;;;13.77;12.40;;;8.30;99.70;;;;;;4934763;29;20468;-73
2021/05/30 01:27:47;;;;;;;14.00;12.60;;;8.30;99.70;;;;;;4934977;29;20551;-73
2021/05/30 01:30:16;;;;;;;14.10;12.80;;;8.20;99.70;;;;;;4935892;29;20470;-73
2021/05/30 01:32:44;;;;;;;13.60;12.30;;;8.20;99.70;;;;;;4935962;29;20487;-73
2021/05/30 01:35:14;;;;;;;13.63;12.30;;;8.20;99.70;;;;;;4936230;29;20532;-72
2021/05/30 01:37:42;;;;;;;14.87;13.40;;;8.10;99.70;;;;;;4934591;29;20491;-73
2021/05/30 01:40:12;;;;;;;13.80;12.50;;;8.10;99.60;;;;;;4934474;29;20476;-72
2021/05/30 01:42:40;;;;;;;15.07;13.13;;;8.10;99.70;;;;;;4934190;29;20912;-73
2021/05/30 01:45:09;;;;;;;14.83;13.40;;;8.00;99.60;;;;;;4935706;29;20838;-73
2021/05/30 01:47:38;;;;;;;13.90;12.50;;;8.00;99.70;;;;;;4934453;29;20554;-73
2021/05/30 01:50:09;;;;;;;15.20;13.67;;;8.00;99.70;;;;;;4934406;29;20883;-73
2021/05/30 01:52:37;;;;;;;15.50;13.67;;;7.90;99.60;;;;;;4937662;29;20935;-73
2021/05/30 01:55:08;;;;;;;15.00;13.60;;;7.90;99.60;;;;;;4938380;29;20444;-73
2021/05/30 01:57:43;;;;;;;15.57;14.17;;;7.90;99.60;;;;;;4938283;29;20459;-73
2021/05/30 02:00:13;;;;;;;15.27;13.63;;;7.90;99.60;;;;;;4938223;29;20482;-73
2021/05/30 02:02:43;;;;;;;14.37;12.93;;;7.80;99.60;;;;;;4939457;29;20440;-73
2021/05/30 02:05:12;;;;;;;14.43;13.13;;;7.80;99.60;;;;;;4938106;29;20476;-73
2021/05/30 02:07:39;;;;;;;15.10;13.50;;;7.80;99.70;;;;;;4939478;29;20435;-73
2021/05/30 02:10:10;;;;;;;15.93;14.30;;;7.70;99.60;;;;;;4938118;29;20479;-72
2021/05/30 02:12:39;;;;;;;14.27;12.90;;;7.70;99.60;;;;;;4937968;29;20487;-73
2021/05/30 02:15:09;;;;;;;15.00;13.37;;;7.70;99.70;;;;;;4940688;29;20937;-70
2021/05/30 02:17:37;;;;;;;14.50;12.63;;;7.60;99.60;;;;;;4937893;29;20460;-70
2021/05/30 02:20:07;;;;;;;16.50;14.20;;;7.60;99.60;;;;;;4939309;29;20819;-70
2021/05/30 02:22:34;;;;;;;15.77;14.17;;;7.60;99.60;;;;;;4953602;29;20452;-70
2021/05/30 02:25:02;;;;;;;18.00;16.27;;;7.60;99.60;;;;;;4937975;29;20916;-70
2021/05/30 02:27:30;;;;;;;16.30;14.70;;;7.50;99.60;;;;;;4939131;29;20443;-70
2021/05/30 02:29:57;;;;;;;17.90;15.10;;;7.50;99.70;;;;;;4939292;29;21043;-70
2021/05/30 02:32:26;;;;;;;16.83;15.10;;;7.50;99.70;;;;;;4937919;29;20491;-71
2021/05/30 02:34:54;;;;;;;14.20;12.80;;;7.40;99.70;;;;;;4939357;29;20538;-73
2021/05/30 02:37:22;;;;;;;16.47;14.33;;;7.40;99.70;;;;;;4937945;29;20579;-72
2021/05/30 02:39:49;;;;;;;15.10;13.60;;;7.50;99.90;;;;;;4937690;29;20518;-72
2021/05/30 02:42:17;;;;;;;15.50;13.97;;;7.50;99.80;;;;;;4937992;29;20827;-73
2021/05/30 02:44:44;;;;;;;16.27;14.73;;;7.40;99.80;;;;;;4937590;29;20924;-73
2021/05/30 02:47:12;;;;;;;16.70;14.93;;;7.40;99.90;;;;;;4938870;29;20809;-72
2021/05/30 02:49:40;;;;;;;16.13;14.37;;;7.40;99.90;;;;;;4937484;29;20476;-73
2021/05/30 02:52:08;;;;;;;15.33;13.17;;;7.30;99.90;;;;;;4939257;29;20451;-72
2021/05/30 02:54:36;;;;;;;17.33;15.20;;;7.30;99.90;;;;;;4938746;29;20959;-73
2021/05/30 02:57:04;;;;;;;16.73;15.13;;;7.30;99.90;;;;;;4936659;29;20889;-72
2021/05/30 02:59:32;;;;;;;15.80;14.30;;;7.20;99.90;;;;;;4936211;29;20503;-72
2021/05/30 03:02:00;;;;;;;15.20;13.70;;;7.20;99.90;;;;;;4935841;29;20475;-72
2021/05/30 03:04:28;;;;;;;15.60;14.00;;;7.20;99.90;;;;;;4937615;29;20487;-72
2021/05/30 03:06:56;;;;;;;14.93;13.40;;;7.20;99.90;;;;;;4937696;29;20440;-72
2021/05/30 03:09:24;;;;;;;15.90;14.20;;;7.10;99.90;;;;;;4937240;29;20466;-73
2021/05/30 03:11:52;;;;;;;16.87;15.13;;;7.10;99.90;;;;;;4937191;29;20443;-72
2021/05/30 03:14:20;;;;;;;15.93;14.50;;;7.10;99.90;;;;;;4948322;28;20547;-72
2021/05/30 03:16:48;;;;;;;15.43;13.93;;;7.10;99.90;;;;;;4935997;29;20548;-72
2021/05/30 03:19:15;;;;;;;16.17;13.73;;;7.10;99.90;;;;;;4935845;29;20448;-73
2021/05/30 03:21:43;;;;;;;15.80;14.13;;;7.00;99.90;;;;;;4937225;29;20535;-72
2021/05/30 03:24:11;;;;;;;17.10;15.03;;;7.00;99.90;;;;;;4935829;29;20535;-72
2021/05/30 03:26:39;;;;;;;15.80;14.30;;;7.00;99.90;;;;;;4937014;29;20440;-72
2021/05/30 03:29:06;;;;;;;17.00;15.03;;;7.00;99.90;;;;;;4935819;29;20469;-73
2021/05/30 03:31:34;;;;;;;16.03;14.53;;;7.00;99.90;;;;;;4937296;29;20447;-72
2021/05/30 03:34:02;;;;;;;15.87;13.57;;;7.00;99.90;;;;;;4937014;29;20436;-72
2021/05/30 03:36:30;;;;;;;15.03;13.63;;;6.90;99.90;;;;;;4936304;29;20452;-72
2021/05/30 03:39:01;;;;;;;15.70;14.10;;;6.90;99.90;;;;;;4935666;29;20983;-73
2021/05/30 03:41:33;;;;;;;17.20;14.93;;;6.90;99.90;;;;;;4939119;29;20575;-72
2021/05/30 03:44:01;;;;;;;15.93;13.57;;;6.90;99.90;;;;;;4935552;29;20535;-72
2021/05/30 03:46:29;;;;;;;15.47;14.07;;;6.90;99.90;;;;;;4936994;29;20475;-72
2021/05/30 03:48:57;;;;;;;17.73;15.90;;;6.90;99.90;;;;;;4936772;29;21048;-72
2021/05/30 03:51:25;;;;;;;15.67;14.07;;;6.90;99.90;;;;;;4935518;29;20531;-72
2021/05/30 03:53:53;;;;;;;14.73;13.23;;;6.90;99.90;;;;;;4936764;29;20531;-72
2021/05/30 03:56:20;;;;;;;15.17;13.57;;;6.90;99.90;;;;;;4896144;29;1183749;-72
2021/05/30 03:58:49;;;;;;;16.73;14.97;;;6.90;99.90;;;;;;4936303;29;20298;-72
2021/05/30 04:01:16;;;;;;;15.73;14.17;;;6.90;99.90;;;;;;4938812;29;21003;-72
2021/05/30 04:03:45;;;;;;;16.67;14.93;;;6.90;99.90;;;;;;4936230;29;20448;-72
2021/05/30 04:06:17;;;;;;;16.10;14.40;;;6.90;99.90;;;;;;4936155;29;20566;-72
2021/05/30 04:08:46;;;;;;;16.23;14.60;;;6.90;99.90;;;;;;4937713;29;20527;-72
2021/05/30 04:11:14;;;;;;;21.00;19.00;;;6.90;99.90;;;;;;4936049;29;20918;-72
2021/05/30 04:13:42;;;;;;;19.97;18.07;;;6.90;99.90;;;;;;4935327;29;20499;-72
2021/05/30 04:16:11;;;;;;;22.13;19.83;;;6.90;99.90;;;;;;4936898;29;20441;-72
2021/05/30 04:18:39;;;;;;;19.93;17.90;;;6.90;99.90;;;;;;4937526;29;20220;-72
2021/05/30 04:21:07;;;;;;;25.67;18.80;;;6.90;99.90;;;;;;4936293;29;20914;-72
2021/05/30 04:23:34;;;;;;;24.77;18.90;;;6.90;99.90;;;;;;4937337;29;20535;-72
2021/05/30 04:26:02;;;;;;;22.37;18.67;;;6.90;99.90;;;;;;4936379;29;20519;-72
2021/05/30 04:28:30;;;;;;;21.30;17.63;;;7.00;99.90;;;;;;4935778;29;20503;-72
2021/05/30 04:30:57;;;;;;;19.60;17.60;;;7.00;99.90;;;;;;4935670;29;20483;-72
2021/05/30 04:33:26;;;;;;;22.67;18.83;;;7.00;99.90;;;;;;4937196;29;20499;-72
2021/05/30 04:35:53;;;;;;;22.67;18.90;;;7.00;99.90;;;;;;4937449;29;20436;-72
2021/05/30 04:38:21;;;;;;;21.00;18.60;;;7.00;99.90;;;;;;4936810;29;20539;-72
2021/05/30 04:40:50;;;;;;;20.67;18.47;;;7.10;99.90;;;;;;4935501;29;20564;-72
2021/05/30 04:43:18;;;;;;;21.33;18.27;;;7.10;99.90;;;;;;4935144;29;20546;-72
2021/05/30 04:45:46;;;;;;;22.23;18.53;;;7.20;99.90;;;;;;4936982;29;20597;-72
2021/05/30 04:48:13;;;;;;;20.93;18.57;;;7.20;99.90;;;;;;4936746;29;20482;-72
2021/05/30 04:50:42;;;;;;;21.47;19.17;;;7.20;99.90;;;;;;4936595;29;20996;-72
2021/05/30 04:53:09;;;;;;;20.93;18.73;;;7.20;99.90;;;;;;4936930;29;20447;-72
2021/05/30 04:55:37;;;;;;;24.60;19.33;;;7.30;99.90;;;;;;4936462;29;20447;-72
2021/05/30 04:58:04;;;;;;;25.70;19.90;;;7.30;99.90;;;;;;4935400;29;20444;-72
2021/05/30 05:00:32;;;;;;;25.30;21.50;;;7.40;99.90;;;;;;4936738;29;20458;-72
2021/05/30 05:03:00;;;;;;;24.10;21.57;;;7.40;99.90;;;;;;4938052;29;20459;-73
2021/05/30 05:05:28;;;;;;;24.63;20.50;;;7.50;99.90;;;;;;4917908;29;20847;-72
2021/05/30 05:07:56;;;;;;;26.20;22.30;;;7.50;99.90;;;;;;4926679;29;20456;-72
2021/05/30 05:10:24;;;;;;;26.73;21.23;;;7.60;99.90;;;;;;4935090;29;20562;-73
2021/05/30 05:12:52;;;;;;;29.00;22.70;;;7.60;99.90;;;;;;4936301;29;20551;-73
2021/05/30 05:15:19;;;;;;;31.43;23.87;;;7.70;99.90;;;;;;4935093;29;20892;-72
2021/05/30 05:17:47;;;;;;;28.50;22.60;;;7.80;99.90;;;;;;4936131;29;20641;-73
2021/05/30 05:20:15;;;;;;;33.13;26.27;;;7.80;99.90;;;;;;4936096;29;20562;-73
2021/05/30 05:22:42;;;;;;;32.57;27.53;;;7.90;99.90;;;;;;4934916;29;20455;-73
2021/05/30 05:25:12;;;;;;;34.63;29.53;;;8.00;99.90;;;;;;4936532;29;20510;-73
2021/05/30 05:27:40;;;;;;;35.50;28.57;;;8.00;99.90;;;;;;4936417;29;20866;-73
2021/05/30 05:30:09;;;;;;;35.67;28.53;;;8.10;99.90;;;;;;4936711;29;20874;-73
2021/05/30 05:32:37;;;;;;;35.73;30.00;;;8.20;99.90;;;;;;4936101;29;21056;-73
2021/05/30 05:35:06;;;;;;;32.60;26.03;;;8.40;99.90;;;;;;4934746;29;20531;-73
2021/05/30 05:37:33;;;;;;;33.83;24.80;;;8.50;99.90;;;;;;4934798;29;20528;-73
2021/05/30 05:40:01;;;;;;;36.50;26.07;;;8.70;99.90;;;;;;4935913;29;20503;-73
2021/05/30 05:42:30;;;;;;;32.70;24.17;;;8.90;99.90;;;;;;4936018;29;20440;-73
2021/05/30 05:44:58;;;;;;;27.30;22.60;;;9.10;99.90;;;;;;4935876;29;20447;-73
2021/05/30 05:47:26;;;;;;;27.33;21.37;;;9.40;99.90;;;;;;4937461;29;20456;-73
2021/05/30 05:49:54;;;;;;;36.60;23.23;;;9.60;99.90;;;;;;4935850;29;20804;-73
2021/05/30 05:52:21;;;;;;;27.30;21.17;;;9.90;99.90;;;;;;4935880;29;20451;-73
2021/05/30 05:54:49;;;;;;;29.60;22.80;;;10.20;99.90;;;;;;4936163;29;20522;-73
2021/05/30 05:57:17;;;;;;;29.73;22.33;;;10.50;99.90;;;;;;4934657;29;20487;-73
2021/05/30 05:59:49;;;;;;;27.45;22.10;;;10.70;99.90;;;;;;4934437;29;20923;-73
2021/05/30 06:02:19;;;;;;;28.23;20.90;;;11.00;99.90;;;;;;4936117;29;20282;-73
2021/05/30 06:04:47;;;;;;;25.63;19.40;;;11.20;99.90;;;;;;4935995;29;20448;-74
2021/05/30 06:07:14;;;;;;;27.27;19.80;;;11.40;99.90;;;;;;4937332;29;20830;-73
2021/05/30 06:09:42;;;;;;;24.83;20.67;;;11.70;99.90;;;;;;4935792;29;20541;-74
2021/05/30 06:12:11;;;;;;;22.70;19.00;;;11.90;99.90;;;;;;4936036;29;20227;-74
2021/05/30 06:14:39;;;;;;;25.03;20.27;;;12.10;99.90;;;;;;4934370;29;20448;-74
2021/05/30 06:17:07;;;;;;;26.70;18.93;;;12.30;99.90;;;;;;4935752;29;20463;-74
2021/05/30 06:19:35;;;;;;;26.23;19.77;;;12.50;99.90;;;;;;4935531;29;20562;-74
2021/05/30 06:22:05;;;;;;;26.60;19.80;;;12.70;99.90;;;;;;4935617;29;20479;-74
2021/05/30 06:24:33;;;;;;;21.80;17.43;;;12.90;99.90;;;;;;4935966;29;20509;-74
2021/05/30 06:27:01;;;;;;;21.97;17.73;;;13.10;99.90;;;;;;4936060;29;20482;-74
2021/05/30 06:29:29;;;;;;;21.40;16.50;;;13.40;99.90;;;;;;4935507;29;20468;-72
2021/05/30 06:31:57;;;;;;;25.30;15.80;;;13.50;99.90;;;;;;4933987;29;20448;-72
2021/05/30 06:34:27;;;;;;;19.30;15.00;;;13.50;99.90;;;;;;4934268;29;20502;-72
2021/05/30 06:37:48;;;;;;;24.07;16.17;;;13.40;99.90;;;;;;4935711;29;20469;-74
2021/05/30 06:57:46;;;;;;;22.17;16.07;;;13.50;99.90;;;;;;4941353;29;20467;-74
2021/05/30 07:00:15;;;;;;;21.77;14.70;;;13.50;99.90;;;;;;4937240;29;20457;-74
2021/05/30 07:02:43;;;;;;;21.07;15.23;;;13.40;99.90;;;;;;4938524;29;20483;-74
2021/05/30 07:05:12;;;;;;;20.03;16.03;;;13.30;99.90;;;;;;4937264;29;20498;-74
2021/05/30 07:07:40;;;;;;;20.40;15.20;;;13.20;99.90;;;;;;4937279;29;20440;-74
2021/05/30 07:10:11;;;;;;;22.40;15.93;;;13.10;99.90;;;;;;4937235;29;20531;-74
2021/05/30 07:12:38;;;;;;;23.13;15.60;;;13.00;99.90;;;;;;4938111;29;20434;-74
2021/05/30 07:15:07;;;;;;;24.90;18.30;;;13.00;99.90;;;;;;4938477;29;20499;-74
2021/05/30 07:17:37;;;;;;;21.83;17.33;;;12.90;99.90;;;;;;4938349;29;20446;-74
2021/05/30 07:20:07;;;;;;;22.10;17.43;;;13.00;99.90;;;;;;4937060;29;20510;-74
2021/05/30 07:22:35;;;;;;;24.40;18.93;;;13.00;99.90;;;;;;4937048;29;20456;-74
2021/05/30 07:25:04;;;;;;;20.53;17.07;;;13.10;99.90;;;;;;4936993;29;20466;-74
2021/05/30 07:27:35;;;;;;;19.57;16.37;;;13.10;99.90;;;;;;4938492;29;20512;-74
2021/05/30 07:30:03;;;;;;;22.10;17.27;;;13.10;99.90;;;;;;4936834;29;20746;-74
2021/05/30 07:32:31;;;;;;;23.80;17.47;;;13.10;99.90;;;;;;4936850;29;20202;-74
2021/05/30 07:34:59;;;;;;;25.13;16.47;;;13.10;99.90;;;;;;4937974;29;20814;-74
2021/05/30 07:37:27;;;;;;;22.20;16.80;;;13.20;99.90;;;;;;4937685;29;20444;-74
2021/05/30 07:39:54;;;;;;;22.73;17.20;;;13.20;99.90;;;;;;4936826;29;20474;-74
2021/05/30 07:42:23;;;;;;;24.40;16.80;;;13.20;99.90;;;;;;4937950;29;20454;-74
2021/05/30 07:44:50;;;;;;;21.30;16.97;;;13.10;99.90;;;;;;4936646;29;20904;-74
2021/05/30 07:47:18;;;;;;;23.63;17.00;;;13.10;99.90;;;;;;4938369;29;20468;-73
2021/05/30 07:49:46;;;;;;;21.03;15.93;;;13.20;99.90;;;;;;4935385;29;20510;-74
2021/05/30 07:52:14;;;;;;;23.27;16.93;;;13.20;99.90;;;;;;4936504;29;20841;-74
2021/05/30 07:54:41;;;;;;;20.80;16.07;;;13.20;99.90;;;;;;4937649;29;20447;-74
2021/05/30 07:57:10;;;;;;;25.07;17.60;;;13.30;99.90;;;;;;4936332;29;20964;-74
2021/05/30 07:59:40;;;;;;;21.33;16.10;;;13.30;99.90;;;;;;4937960;29;20494;-74
2021/05/30 08:02:08;;;;;;;23.63;17.40;;;13.30;99.90;;;;;;4936192;29;20499;-74
2021/05/30 08:04:36;;;;;;;24.27;16.27;;;13.40;99.90;;;;;;4937354;29;20431;-74
2021/05/30 08:07:05;;;;;;;21.80;18.30;;;13.40;99.90;;;;;;4938367;29;20483;-74
2021/05/30 08:09:33;;;;;;;25.90;17.33;;;13.50;99.90;;;;;;4936223;29;20468;-74
2021/05/30 08:12:00;;;;;;;25.03;19.90;;;13.50;99.90;;;;;;4936142;29;20773;-74
2021/05/30 08:14:29;;;;;;;25.13;17.53;;;13.50;99.90;;;;;;4937296;29;20809;-74
2021/05/30 08:16:58;;;;;;;21.63;16.33;;;13.50;99.90;;;;;;4936003;29;20445;-74
2021/05/30 08:19:26;;;;;;;21.70;16.10;;;13.40;99.90;;;;;;4937212;29;20464;-74
2021/05/30 08:21:53;;;;;;;21.70;18.20;;;13.40;99.90;;;;;;4935966;29;20816;-74
2021/05/30 08:24:21;;;;;;;22.97;16.40;;;13.40;99.90;;;;;;4939006;29;20874;-74
2021/05/30 08:26:51;;;;;;;23.03;17.10;;;13.40;99.90;;;;;;4931852;29;20476;-73
2021/05/30 08:29:19;;;;;;;22.03;17.50;;;13.50;99.90;;;;;;4937044;29;20483;-74
2021/05/30 08:31:49;;;;;;;22.80;18.50;;;13.60;99.90;;;;;;4935828;29;20886;-73
2021/05/30 08:34:18;;;;;;;23.63;18.70;;;13.60;99.90;;;;;;4937161;29;20422;-73
2021/05/30 08:36:45;;;;;;;22.70;17.93;;;13.70;99.90;;;;;;4925111;29;20436;-74
2021/05/30 08:39:13;;;;;;;21.40;16.80;;;13.80;99.90;;;;;;4935507;29;20460;-73
2021/05/30 08:41:42;;;;;;;20.43;16.20;;;13.80;99.90;;;;;;4936747;29;20473;-73
2021/05/30 08:44:11;;;;;;;25.73;15.60;;;13.90;99.90;;;;;;4935550;29;20458;-73
2021/05/30 08:46:39;;;;;;;20.67;16.30;;;14.00;99.90;;;;;;4936656;29;20482;-74
2021/05/30 08:49:07;;;;;;;20.60;15.87;;;14.00;99.90;;;;;;4936988;29;20476;-73
2021/05/30 08:51:37;;;;;;;17.70;14.80;;;14.00;99.90;;;;;;4935430;29;20450;-73
2021/05/30 08:54:09;;;;;;;20.20;16.57;;;14.00;99.90;;;;;;4936569;29;20501;-73
2021/05/30 08:56:39;;;;;;;21.43;15.53;;;14.10;99.90;;;;;;4931507;29;20563;-73
2021/05/30 08:59:16;;;;;;;19.40;15.90;;;14.20;99.90;;;;;;4932056;29;21004;-73
2021/05/30 09:01:45;;;;;;;20.67;16.20;;;14.30;99.90;;;;;;4915918;29;20472;-73
2021/05/30 09:04:14;;;;;;;18.92;15.73;;;14.40;99.90;;;;;;4915806;29;20449;-74
2021/05/30 09:06:45;;;;;;;20.57;14.30;;;14.50;99.90;;;;;;4917552;29;20217;-74
2021/05/30 09:09:15;;;;;;;20.17;16.93;;;14.60;99.90;;;;;;4917224;29;20469;-74
2021/05/30 09:11:48;;;;;;;20.77;16.50;;;14.60;99.90;;;;;;4931811;29;20453;-74
2021/05/30 09:14:19;;;;;;;21.50;17.27;;;14.60;99.90;;;;;;4917939;29;20899;-74
2021/05/30 09:16:53;;;;;;;21.57;16.30;;;14.60;99.90;;;;;;4936176;29;20474;-73
2021/05/30 09:19:47;;;;;;;20.90;16.40;;;14.60;99.90;;;;;;4936164;29;20395;-73
2021/05/30 09:22:32;;;;;;;18.20;15.97;;;14.70;99.90;;;;;;4936416;29;20407;-74
2021/05/30 09:25:09;;;;;;;20.00;17.90;;;14.80;99.90;;;;;;4934849;29;20461;-74
2021/05/30 09:27:42;;;;;;;19.47;16.73;;;14.80;99.90;;;;;;4934811;29;20446;-74
2021/05/30 09:30:12;;;;;;;18.70;15.17;;;14.80;99.90;;;;;;4934700;29;21068;-74
2021/05/30 09:33:02;;;;;;;19.53;16.80;;;14.90;99.90;;;;;;4936287;29;20497;-74
2021/05/30 09:35:53;;;;;;;20.30;17.40;;;14.90;99.90;;;;;;4936162;29;20483;-74
2021/05/30 09:38:27;;;;;;;19.27;15.63;;;15.00;99.90;;;;;;4935942;29;20467;-74
2021/05/30 09:40:56;;;;;;;16.90;14.93;;;15.10;99.90;;;;;;4934617;29;20450;-74
2021/05/30 09:43:26;;;;;;;19.13;16.13;;;15.10;99.90;;;;;;4936189;29;20467;-74
2021/05/30 09:46:00;;;;;;;23.50;16.20;;;15.20;99.90;;;;;;4935884;29;20442;-74
2021/05/30 09:48:28;;;;;;;20.43;16.23;;;15.30;99.90;;;;;;4936157;29;20403;-74
2021/05/30 09:51:03;;;;;;;19.57;16.20;;;15.40;99.90;;;;;;4934558;29;20882;-74
2021/05/30 09:53:51;;;;;;;19.80;17.67;;;15.50;99.90;;;;;;4936154;29;20961;-74
2021/05/30 09:56:33;;;;;;;18.73;16.83;;;15.60;99.90;;;;;;4935700;29;20423;-74
2021/05/30 09:59:02;;;;;;;17.93;15.57;;;15.70;99.90;;;;;;4936102;29;20424;-74
2021/05/30 10:01:49;;;;;;;17.43;14.97;;;15.80;99.90;;;;;;4934583;29;20461;-71
2021/05/30 10:04:17;;;;;;;17.07;14.43;;;15.90;99.90;;;;;;4935737;29;20456;-72
2021/05/30 10:06:45;;;;;;;18.10;15.53;;;16.00;99.90;;;;;;4917272;29;20665;-71
2021/05/30 10:09:14;;;;;;;17.00;14.73;;;16.10;99.90;;;;;;4916599;29;20821;-72
2021/05/30 10:11:42;;;;;;;18.38;16.40;;;16.20;99.90;;;;;;4930792;29;20488;-72
2021/05/30 10:14:11;;;;;;;20.00;15.37;;;16.30;99.90;;;;;;4919974;29;20639;-72
2021/05/30 10:16:38;;;;;;;18.57;14.83;;;16.40;99.90;;;;;;4920356;29;20548;-72
2021/05/30 10:19:09;;;;;;;18.07;16.17;;;16.50;99.90;;;;;;4934779;29;20491;-72
2021/05/30 10:21:44;;;;;;;18.63;15.97;;;16.60;99.90;;;;;;4936446;29;20444;-72
2021/05/30 10:24:13;;;;;;;16.90;15.03;;;16.60;99.90;;;;;;4939437;29;20462;-72
2021/05/30 10:26:47;;;;;;;19.40;15.83;;;16.70;99.90;;;;;;4937715;29;20470;-71
2021/05/30 10:29:16;;;;;;;16.23;14.63;;;16.70;99.90;;;;;;4939185;29;20451;-72
2021/05/30 10:31:47;;;;;;;16.30;14.17;;;16.80;99.90;;;;;;4937785;29;20491;-71
2021/05/30 10:34:18;;;;;;;16.00;14.30;;;16.80;99.90;;;;;;4937773;29;20443;-72
2021/05/30 10:37:22;;;;;;;15.87;14.20;;;16.90;99.90;;;;;;4937553;29;20993;-72
2021/05/30 10:39:51;;;;;;;17.37;14.07;;;17.00;99.90;;;;;;4939105;29;20965;-75
2021/05/30 10:42:23;;;;;;;16.57;14.87;;;17.10;99.90;;;;;;4937327;29;20455;-74
2021/05/30 10:44:59;;;;;;;16.57;14.87;;;17.20;99.90;;;;;;4937439;29;20926;-75
2021/05/30 10:48:00;;;;;;;16.43;14.80;;;17.30;99.90;;;;;;4938765;29;20517;-75
2021/05/30 10:50:35;;;;;;;17.10;15.30;;;17.40;99.90;;;;;;4934397;29;20478;-72
2021/05/30 10:53:04;;;;;;;15.67;14.17;;;17.50;99.90;;;;;;4937454;29;20894;-72
2021/05/30 10:55:35;;;;;;;19.43;15.07;;;17.60;99.90;;;;;;4937450;29;20458;-72
2021/05/30 10:58:15;;;;;;;16.50;11.97;;;17.70;99.90;;;;;;4937233;29;20572;-72
2021/05/30 11:00:43;;;;;;;15.83;13.57;;;17.80;99.90;;;;;;4938658;29;20459;-72
2021/05/30 11:03:13;;;;;;;17.20;15.23;;;17.90;99.90;;;;;;4938369;29;20488;-72
2021/05/30 11:05:46;;;;;;;15.00;12.73;;;18.00;99.90;;;;;;4937495;29;20456;-72
2021/05/30 11:08:51;;;;;;;16.77;13.00;;;18.00;99.90;;;;;;4937036;29;20997;-72
2021/05/30 11:11:24;;;;;;;16.03;12.50;;;18.10;99.90;;;;;;4937069;29;20487;-71
2021/05/30 11:13:54;;;;;;;14.73;12.93;;;18.10;99.90;;;;;;4937313;29;20945;-72
2021/05/30 11:16:23;;;;;;;16.30;14.60;;;18.30;99.90;;;;;;4938341;29;20728;-72
2021/05/30 11:18:59;;;;;;;14.60;12.70;;;18.30;99.90;;;;;;4938425;29;20495;-72
2021/05/30 11:21:32;;;;;;;14.63;13.20;;;18.40;99.90;;;;;;4936785;29;21013;-72
2021/05/30 11:24:01;;;;;;;16.25;13.88;;;18.50;99.90;;;;;;4937974;29;21020;-71
2021/05/30 11:26:29;;;;;;;15.23;13.63;;;18.60;99.20;;;;;;4938151;29;20203;-74
2021/05/30 11:28:57;;;;;;;14.40;12.63;;;18.60;99.40;;;;;;4938165;29;20518;-75
2021/05/30 11:31:25;;;;;;;16.83;13.37;;;18.70;99.60;;;;;;4936531;29;20475;-74
2021/05/30 11:33:57;;;;;;;14.87;13.27;;;18.70;99.60;;;;;;4937717;29;20791;-72
2021/05/30 11:36:31;;;;;;;14.70;13.30;;;18.90;99.40;;;;;;4937582;29;20427;-72
2021/05/30 11:39:07;;;;;;;13.10;11.70;;;18.90;99.40;;;;;;4937661;29;20444;-72
2021/05/30 11:41:37;;;;;;;15.33;11.70;;;19.00;99.40;;;;;;4936604;29;20856;-72
2021/05/30 11:44:08;;;;;;;13.37;12.03;;;19.10;99.40;;;;;;4936780;29;20563;-72
2021/05/30 11:46:39;;;;;;;12.90;11.60;;;19.10;99.30;;;;;;4936488;29;20458;-72
2021/05/30 11:49:13;;;;;;;14.63;12.93;;;19.10;99.20;;;;;;4937684;29;20471;-72
2021/05/30 11:52:01;;;;;;;11.70;10.50;;;19.20;99.10;;;;;;4936450;29;20479;-72
2021/05/30 11:54:33;;;;;;;12.73;11.63;;;19.10;99.00;;;;;;4938222;29;20436;-72
2021/05/30 11:57:03;;;;;;;14.03;12.63;;;19.20;99.10;;;;;;4937516;29;20559;-72
2021/05/30 11:59:34;;;;;;;13.37;11.97;;;19.30;99.10;;;;;;4937840;29;20468;-72
2021/05/30 12:02:03;;;;;;;12.10;10.50;;;19.30;99.00;;;;;;4935727;29;20496;-72
2021/05/30 12:04:39;;;;;;;14.93;11.93;;;19.40;99.00;;;;;;4938079;29;20470;-72
2021/05/30 12:07:10;;;;;;;13.57;12.20;;;19.50;99.00;;;;;;4937056;29;20489;-72
2021/05/30 12:09:52;;;;;;;13.40;11.40;;;19.50;98.90;;;;;;4937270;29;20472;-72
2021/05/30 12:12:29;;;;;;;14.43;11.30;;;19.60;98.90;;;;;;4936499;29;20862;-71
2021/05/30 12:15:01;;;;;;;13.10;11.13;;;19.60;98.80;;;;;;4937526;29;20538;-72
2021/05/30 12:17:29;;;;;;;13.27;11.20;;;19.70;98.70;;;;;;4937432;29;20448;-72
2021/05/30 12:19:57;;;;;;;13.03;11.03;;;19.70;98.70;;;;;;4935445;29;20463;-72
2021/05/30 12:22:26;;;;;;;14.80;10.50;;;19.70;98.70;;;;;;4937419;29;20478;-72
2021/05/30 12:24:56;;;;;;;12.80;10.43;;;19.70;98.50;;;;;;4935610;29;20937;-72
2021/05/30 12:27:26;;;;;;;12.33;11.00;;;19.80;98.30;;;;;;4936670;29;20468;-72
2021/05/30 12:29:56;;;;;;;10.90;9.80;;;19.80;98.30;;;;;;4935428;29;20472;-72
2021/05/30 12:32:24;;;;;;;10.27;8.47;;;19.80;98.20;;;;;;4936585;29;20444;-72
2021/05/30 12:34:52;;;;;;;11.37;10.10;;;19.80;98.00;;;;;;4934765;29;20559;-72
2021/05/30 12:37:38;;;;;;;12.93;10.63;;;19.90;97.70;;;;;;4935409;29;20934;-72
2021/05/30 12:40:09;;;;;;;11.70;10.67;;;19.90;97.60;;;;;;4936801;29;20461;-72
2021/05/30 12:42:40;;;;;;;11.23;8.67;;;19.90;97.60;;;;;;4935914;29;20526;-72
2021/05/30 12:45:11;;;;;;;10.10;9.10;;;19.90;97.40;;;;;;4935343;29;20474;-72
2021/05/30 12:47:42;;;;;;;12.97;9.67;;;19.90;97.30;;;;;;4936731;29;20468;-72
2021/05/30 12:50:12;;;;;;;12.03;9.00;;;20.00;97.20;;;;;;4935241;29;20479;-72
2021/05/30 12:52:48;;;;;;;12.20;9.20;;;20.00;97.10;;;;;;4935186;29;20510;-72
2021/05/30 12:55:18;;;;;;;11.10;8.60;;;20.00;97.00;;;;;;4935225;29;20967;-72
2021/05/30 12:57:48;;;;;;;9.77;8.40;;;20.00;97.10;;;;;;4936436;29;20447;-72
2021/05/30 13:00:29;;;;;;;10.90;8.03;;;20.10;97.20;;;;;;4935516;29;20995;-73
2021/05/30 13:02:58;;;;;;;12.30;9.00;;;20.20;97.00;;;;;;4936546;29;20539;-73
2021/05/30 13:05:36;;;;;;;10.07;8.97;;;20.30;97.00;;;;;;4936075;29;20527;-73
2021/05/30 13:08:18;;;;;;;10.10;8.90;;;20.30;97.00;;;;;;4936147;29;20980;-72
2021/05/30 13:10:54;;;;;;;10.17;8.70;;;20.40;96.80;;;;;;4936153;29;20491;-72
2021/05/30 13:13:27;;;;;;;10.50;8.47;;;20.40;96.80;;;;;;4934930;29;20462;-72